Terminal Aerodrome Forecast
Issued by NWS Omaha/Valley, NE

Home | Current Version | Previous Version | Graphics & Text | Print | Product List | Glossary On
Versions: 1 2 3 4 5 6 7 8 9 10 11 12 13 14 15 16 17 18
000
FTUS43 KOAX 201737
TAFOFK
TAF
KOFK 201737Z 2018/2118 26015KT P6SM BKN035
     FM202000 32015G23KT P6SM BKN080
     FM210000 31007KT P6SM FEW250
     FM210400 25004KT P6SM SKC
     FM211600 24010G19KT P6SM SKC=

USA.gov is the U.S. government's official web portal to all federal, state and local government web resources and services.